createdAt,value
2017-11-20T00:00:56.733Z,2.17
2017-11-20T00:03:31.027Z,1.97
2017-11-20T00:05:57.247Z,1.50
2017-11-20T00:08:24.335Z,2.50
2017-11-20T00:10:51.667Z,1.67
2017-11-20T00:13:17.871Z,1.50
2017-11-20T00:15:44.011Z,2.13
2017-11-20T00:18:11.433Z,1.80
2017-11-20T00:20:38.323Z,1.40
2017-11-20T00:23:04.442Z,1.50
2017-11-20T00:25:31.573Z,1.80
2017-11-20T00:27:57.733Z,1.70
2017-11-20T00:30:24.582Z,1.07
2017-11-20T00:32:50.863Z,2.00
2017-11-20T00:35:17.141Z,1.97
2017-11-20T00:37:43.253Z,1.77
2017-11-20T00:40:10.380Z,1.60
2017-11-20T00:42:37.162Z,2.37
2017-11-20T00:45:03.290Z,1.20
2017-11-20T00:47:29.547Z,1.83
2017-11-20T00:49:55.645Z,1.33
2017-11-20T00:52:21.729Z,1.47
2017-11-20T00:54:47.917Z,1.50
2017-11-20T00:57:14.162Z,1.40
2017-11-20T00:59:41.032Z,1.60
2017-11-20T01:02:07.154Z,1.77
2017-11-20T01:04:33.311Z,1.37
2017-11-20T01:07:00.874Z,1.50
2017-11-20T01:09:27.016Z,1.47
2017-11-20T01:11:53.151Z,1.30
2017-11-20T01:14:19.256Z,1.20
2017-11-20T01:16:45.450Z,1.43
2017-11-20T01:19:11.754Z,1.13
2017-11-20T01:21:38.587Z,1.10
2017-11-20T01:24:05.893Z,1.40
2017-11-20T01:26:32.015Z,1.50
2017-11-20T01:28:58.138Z,1.27
2017-11-20T01:31:24.288Z,1.60
2017-11-20T01:33:50.485Z,1.40
2017-11-20T01:36:17.717Z,1.13
2017-11-20T01:38:43.853Z,0.90
2017-11-20T01:41:10.443Z,1.40
2017-11-20T01:43:36.721Z,1.33
2017-11-20T01:46:02.958Z,1.67
2017-11-20T01:48:30.182Z,1.30
2017-11-20T01:50:56.420Z,1.20
2017-11-20T01:53:22.540Z,2.80
2017-11-20T01:55:48.704Z,0.80
2017-11-20T01:58:14.847Z,1.13
2017-11-20T02:00:41.009Z,1.80
2017-11-20T02:03:08.197Z,1.27
2017-11-20T02:05:34.407Z,1.03
2017-11-20T02:08:00.578Z,1.10
2017-11-20T02:10:27.383Z,1.37
2017-11-20T02:12:54.281Z,1.10
2017-11-20T02:15:21.230Z,1.30
2017-11-20T02:17:47.324Z,1.20
2017-11-20T02:20:13.568Z,1.10
2017-11-20T02:22:39.821Z,1.20
2017-11-20T02:25:06.891Z,1.07
2017-11-20T02:27:33.030Z,1.63
2017-11-20T02:29:59.412Z,0.90
2017-11-20T02:32:25.876Z,1.20
2017-11-20T02:34:51.992Z,1.17
2017-11-20T02:37:18.215Z,1.20
2017-11-20T02:39:44.474Z,1.70
2017-11-20T02:42:10.599Z,1.77
2017-11-20T02:44:37.686Z,1.40
2017-11-20T02:47:03.768Z,1.10
2017-11-20T02:49:30.019Z,1.80
2017-11-20T02:51:56.379Z,1.20
2017-11-20T02:54:23.246Z,1.30
2017-11-20T02:56:49.507Z,1.10
2017-11-20T02:59:15.792Z,1.30
2017-11-20T03:01:41.920Z,1.10
2017-11-20T03:04:08.017Z,1.47
2017-11-20T03:06:34.200Z,1.27
2017-11-20T03:09:00.297Z,1.40
2017-11-20T03:11:26.440Z,0.80
2017-11-20T03:13:52.583Z,1.57
2017-11-20T03:16:18.684Z,0.90
2017-11-20T03:18:45.515Z,1.43
2017-11-20T03:21:11.731Z,1.63
2017-11-20T03:23:37.838Z,1.80
2017-11-20T03:26:03.928Z,1.50
2017-11-20T03:28:30.226Z,1.70
2017-11-20T03:30:56.313Z,2.37
2017-11-20T03:33:22.416Z,2.90
2017-11-20T03:35:48.542Z,2.70
2017-11-20T03:38:14.634Z,3.13
2017-11-20T03:40:40.797Z,3.33
2017-11-20T03:43:06.980Z,4.10
2017-11-20T03:45:33.073Z,3.07
2017-11-20T03:47:59.916Z,4.00
2017-11-20T03:50:26.774Z,4.10
2017-11-20T03:52:53.635Z,4.27
2017-11-20T03:55:19.833Z,3.83
2017-11-20T03:57:45.942Z,4.00
2017-11-20T04:00:12.031Z,3.70
2017-11-20T04:02:38.150Z,3.57
2017-11-20T04:05:04.358Z,5.10
2017-11-20T04:07:30.668Z,4.70
2017-11-20T04:09:56.759Z,4.50
2017-11-20T04:12:22.918Z,4.60
2017-11-20T04:14:48.993Z,4.03
2017-11-20T04:17:15.100Z,3.83
2017-11-20T04:19:41.205Z,4.13
2017-11-20T04:22:07.310Z,3.13
2017-11-20T04:24:33.399Z,4.00
2017-11-20T04:26:59.521Z,4.43
2017-11-20T04:29:25.905Z,3.87
2017-11-20T04:31:52.774Z,3.73
2017-11-20T04:34:19.660Z,3.23
2017-11-20T04:36:45.774Z,3.63
2017-11-20T04:39:11.896Z,3.50
2017-11-20T04:41:38.783Z,3.17
2017-11-20T04:44:04.893Z,3.20
2017-11-20T04:46:31.058Z,3.47
2017-11-20T04:48:57.194Z,3.70
2017-11-20T04:51:23.341Z,3.57
2017-11-20T04:53:49.477Z,3.40
2017-11-20T04:56:15.573Z,3.50
2017-11-20T04:58:41.669Z,3.67
2017-11-20T05:01:07.881Z,3.40
2017-11-20T05:03:33.990Z,3.13
2017-11-20T05:06:00.825Z,3.90
2017-11-20T05:08:26.986Z,3.50
2017-11-20T05:10:53.826Z,3.77
2017-11-20T05:13:19.909Z,2.80
2017-11-20T05:15:46.049Z,3.13
2017-11-20T05:18:12.185Z,3.17
2017-11-20T05:20:38.312Z,2.90
2017-11-20T05:23:04.396Z,3.40
2017-11-20T05:25:30.522Z,3.60
2017-11-20T05:27:56.638Z,2.80
2017-11-20T05:30:22.718Z,2.50
2017-11-20T05:32:48.837Z,3.50
2017-11-20T05:35:14.936Z,2.87
2017-11-20T05:37:41.030Z,2.97
2017-11-20T05:40:07.157Z,3.10
2017-11-20T05:42:33.233Z,2.90
2017-11-20T05:44:59.309Z,3.10
2017-11-20T05:47:25.463Z,2.50
2017-11-20T05:49:51.687Z,3.37
2017-11-20T05:52:17.766Z,2.97
2017-11-20T05:54:43.880Z,3.03
2017-11-20T05:57:09.968Z,3.40
2017-11-20T05:59:36.042Z,3.17
2017-11-20T06:02:02.178Z,3.40
2017-11-20T06:04:28.274Z,3.83
2017-11-20T06:06:55.089Z,3.43
2017-11-20T06:09:21.346Z,3.80
2017-11-20T06:11:47.435Z,3.40
2017-11-20T06:14:13.656Z,5.07
2017-11-20T06:16:39.804Z,3.10
2017-11-20T06:19:05.938Z,3.70
2017-11-20T06:21:32.085Z,2.90
2017-11-20T06:23:58.238Z,3.63
2017-11-20T06:26:24.425Z,3.47
2017-11-20T06:28:50.533Z,2.80
2017-11-20T06:31:16.921Z,3.03
2017-11-20T06:33:43.117Z,3.30
2017-11-20T06:36:09.414Z,3.20
2017-11-20T06:38:35.610Z,3.43
2017-11-20T06:41:01.733Z,3.30
2017-11-20T06:43:28.150Z,3.60
2017-11-20T06:45:54.306Z,3.07
2017-11-20T06:48:20.454Z,3.50
2017-11-20T06:50:46.578Z,3.43
2017-11-20T06:53:12.709Z,3.37
2017-11-20T06:55:38.854Z,3.37
2017-11-20T06:58:04.980Z,3.60
2017-11-20T07:00:31.109Z,3.23
2017-11-20T07:02:57.203Z,2.90
2017-11-20T07:05:23.333Z,4.20
2017-11-20T07:07:49.457Z,4.07
2017-11-20T07:10:15.606Z,3.87
2017-11-20T07:12:41.721Z,4.50
2017-11-20T07:15:07.867Z,4.40
2017-11-20T07:17:34.005Z,5.33
2017-11-20T07:20:00.073Z,3.90
2017-11-20T07:22:26.237Z,5.23
2017-11-20T07:24:53.075Z,4.10
2017-11-20T07:27:31.725Z,5.17
2017-11-20T07:30:10.843Z,4.83
2017-11-20T07:32:37.006Z,4.93
2017-11-20T07:35:03.098Z,4.37
2017-11-20T07:37:41.410Z,4.67
2017-11-20T07:40:15.695Z,5.70
2017-11-20T07:42:41.839Z,4.60
2017-11-20T07:45:08.048Z,5.47
2017-11-20T07:47:34.185Z,4.93
2017-11-20T07:50:00.374Z,4.83
2017-11-20T07:52:26.462Z,5.00
2017-11-20T07:54:52.645Z,5.73
2017-11-20T07:57:19.589Z,6.73
2017-11-20T07:59:46.429Z,5.77
2017-11-20T08:02:12.695Z,5.70
2017-11-20T08:04:39.599Z,4.87
2017-11-20T08:07:05.673Z,5.37
2017-11-20T08:09:31.853Z,5.83
2017-11-20T08:11:58.033Z,5.50
2017-11-20T08:14:24.117Z,5.20
2017-11-20T08:16:50.346Z,4.73
2017-11-20T08:19:16.491Z,5.50
2017-11-20T08:21:42.588Z,6.50
2017-11-20T08:24:08.716Z,6.43
2017-11-20T08:26:34.834Z,5.17
2017-11-20T08:29:00.925Z,5.00
2017-11-20T08:31:28.414Z,5.10
2017-11-20T08:33:54.536Z,5.03
2017-11-20T08:36:20.641Z,5.20
2017-11-20T08:38:46.777Z,5.33
2017-11-20T08:41:13.772Z,4.80
2017-11-20T08:43:40.662Z,5.20
2017-11-20T08:46:06.762Z,4.80
2017-11-20T08:48:33.669Z,5.20
2017-11-20T08:50:59.761Z,4.90
2017-11-20T08:53:26.620Z,4.10
2017-11-20T08:55:53.714Z,4.70
2017-11-20T08:58:19.809Z,4.20
2017-11-20T09:00:46.005Z,4.40
2017-11-20T09:03:13.327Z,3.90
2017-11-20T09:05:39.526Z,4.63
2017-11-20T09:08:05.685Z,4.83
2017-11-20T09:10:32.594Z,5.00
2017-11-20T09:12:58.746Z,4.40
2017-11-20T09:15:24.878Z,4.30
2017-11-20T09:17:50.994Z,4.23
2017-11-20T09:20:17.133Z,4.37
2017-11-20T09:22:43.248Z,5.53
2017-11-20T09:25:10.466Z,4.70
2017-11-20T09:27:36.558Z,4.80
2017-11-20T09:30:02.635Z,4.10
2017-11-20T09:32:29.149Z,4.10
2017-11-20T09:34:55.243Z,4.00
2017-11-20T09:37:21.395Z,3.00
2017-11-20T09:39:48.746Z,2.70
2017-11-20T09:42:14.850Z,3.70
2017-11-20T09:44:41.045Z,3.30
2017-11-20T09:47:07.949Z,2.80
2017-11-20T09:49:34.098Z,2.90
2017-11-20T09:52:00.195Z,4.10
2017-11-20T09:54:26.318Z,4.30
2017-11-20T09:56:52.491Z,3.30
2017-11-20T09:59:18.577Z,3.77
2017-11-20T10:01:44.716Z,2.77
2017-11-20T10:04:10.865Z,2.87
2017-11-20T10:06:37.727Z,3.60
2017-11-20T10:09:03.845Z,2.93
2017-11-20T10:11:29.969Z,2.70
2017-11-20T10:13:56.237Z,2.90
2017-11-20T10:16:22.581Z,6.37
2017-11-20T10:18:49.429Z,2.83
2017-11-20T10:21:15.555Z,3.47
2017-11-20T10:23:41.726Z,5.33
2017-11-20T10:26:08.000Z,3.00
2017-11-20T10:28:34.104Z,3.70
2017-11-20T10:31:00.261Z,5.23
2017-11-20T10:33:26.434Z,2.93
2017-11-20T10:35:52.550Z,3.80
2017-11-20T10:38:18.661Z,3.17
2017-11-20T10:40:45.526Z,2.97
2017-11-20T10:43:11.637Z,3.40
2017-11-20T10:45:38.550Z,2.20
2017-11-20T10:48:04.678Z,2.70
2017-11-20T10:50:30.766Z,2.83
2017-11-20T10:52:56.910Z,2.80
2017-11-20T10:55:23.788Z,2.93
2017-11-20T10:57:49.957Z,3.40
2017-11-20T11:00:16.073Z,2.80
2017-11-20T11:02:42.241Z,3.10
2017-11-20T11:05:08.392Z,3.03
2017-11-20T11:07:34.560Z,2.87
2017-11-20T11:10:00.775Z,2.63
2017-11-20T11:12:26.912Z,3.30
2017-11-20T11:14:53.072Z,3.23
2017-11-20T11:17:19.258Z,3.30
2017-11-20T11:19:45.391Z,2.80
2017-11-20T11:22:11.522Z,6.43
2017-11-20T11:24:37.707Z,3.17
2017-11-20T11:27:03.805Z,2.80
2017-11-20T11:29:29.927Z,2.90
2017-11-20T11:31:56.025Z,2.90
2017-11-20T11:34:22.244Z,2.50
2017-11-20T11:36:48.362Z,3.20
2017-11-20T11:39:18.173Z,3.13
2017-11-20T11:41:40.986Z,2.70
2017-11-20T11:44:07.111Z,3.43
2017-11-20T11:46:33.240Z,2.87
2017-11-20T11:48:59.347Z,2.83
2017-11-20T11:51:25.481Z,2.80
2017-11-20T11:53:51.562Z,3.00
2017-11-20T11:56:17.649Z,2.57
2017-11-20T11:58:44.563Z,3.27
2017-11-20T12:01:10.749Z,2.73
2017-11-20T12:03:36.844Z,3.17
2017-11-20T12:06:02.998Z,3.57
2017-11-20T12:08:29.111Z,3.00
2017-11-20T12:10:55.536Z,2.90
2017-11-20T12:13:21.741Z,3.23
2017-11-20T12:15:48.599Z,2.60
2017-11-20T12:18:14.708Z,2.70
2017-11-20T12:20:40.993Z,3.27
2017-11-20T12:23:07.086Z,3.13
2017-11-20T12:25:33.178Z,2.97
2017-11-20T12:27:59.322Z,3.60
2017-11-20T12:30:25.411Z,2.83
2017-11-20T12:32:51.493Z,2.93
2017-11-20T12:35:17.630Z,2.87
2017-11-20T12:37:43.954Z,2.40
2017-11-20T12:40:10.046Z,3.10
2017-11-20T12:42:36.201Z,2.00
2017-11-20T12:45:02.329Z,2.40
2017-11-20T12:47:28.446Z,2.63
2017-11-20T12:49:54.633Z,2.60
2017-11-20T12:52:21.503Z,2.60
2017-11-20T12:54:47.649Z,2.30
2017-11-20T12:57:13.827Z,2.43
2017-11-20T12:59:40.011Z,2.53
2017-11-20T13:02:06.124Z,1.90
2017-11-20T13:04:32.275Z,2.60
2017-11-20T13:06:58.430Z,2.60
2017-11-20T13:09:24.525Z,1.70
2017-11-20T13:11:50.648Z,2.27
2017-11-20T13:14:16.869Z,2.10
2017-11-20T13:16:43.061Z,2.20
2017-11-20T13:19:09.176Z,2.27
2017-11-20T13:21:35.503Z,2.53
2017-11-20T13:24:01.633Z,2.60
2017-11-20T13:26:27.790Z,2.00
2017-11-20T13:28:53.916Z,1.60
2017-11-20T13:31:20.520Z,2.07
2017-11-20T13:33:47.487Z,1.90
2017-11-20T13:36:14.371Z,2.10
2017-11-20T13:38:40.524Z,1.80
2017-11-20T13:41:06.655Z,2.70
2017-11-20T13:43:32.742Z,1.87
2017-11-20T13:45:58.886Z,2.20
2017-11-20T13:48:25.054Z,1.70
2017-11-20T13:50:51.183Z,2.13
2017-11-20T13:53:17.313Z,2.17
2017-11-20T13:55:44.177Z,2.10
2017-11-20T13:58:11.157Z,2.10
2017-11-20T14:00:37.262Z,1.60
2017-11-20T14:03:03.382Z,2.57
2017-11-20T14:05:29.530Z,1.97
2017-11-20T14:07:56.419Z,2.03
2017-11-20T14:10:22.550Z,2.13
2017-11-20T14:12:48.686Z,2.33
2017-11-20T14:15:14.903Z,2.60
2017-11-20T14:17:41.790Z,2.30
2017-11-20T14:20:08.047Z,2.40
2017-11-20T14:22:34.141Z,2.40
2017-11-20T14:25:00.336Z,2.10
2017-11-20T14:27:26.489Z,2.17
2017-11-20T14:29:52.602Z,1.77
2017-11-20T14:32:18.730Z,2.87
2017-11-20T14:34:44.915Z,8.70
2017-11-20T14:37:11.168Z,8.23
2017-11-20T14:39:38.218Z,2.23
2017-11-20T14:42:05.039Z,6.20
2017-11-20T14:44:31.197Z,3.73
2017-11-20T14:46:58.106Z,4.90
2017-11-20T14:49:25.101Z,4.97
2017-11-20T14:51:57.063Z,3.13
2017-11-20T14:54:30.237Z,2.67
2017-11-20T14:56:57.133Z,3.40
2017-11-20T14:59:23.274Z,1.97
2017-11-20T15:01:49.402Z,2.97
2017-11-20T15:04:16.114Z,4.63
2017-11-20T15:06:42.957Z,10.90
2017-11-20T15:09:09.139Z,3.50
2017-11-20T15:11:35.233Z,4.20
2017-11-20T15:14:01.354Z,3.60
2017-11-20T15:16:27.500Z,1.83
2017-11-20T15:18:53.622Z,5.33
2017-11-20T15:21:19.777Z,5.10
2017-11-20T15:23:45.917Z,2.80
2017-11-20T15:26:12.001Z,2.43
2017-11-20T15:28:38.110Z,4.00
2017-11-20T15:31:04.241Z,3.20
2017-11-20T15:33:30.367Z,6.53
2017-11-20T15:35:57.416Z,2.77
2017-11-20T15:38:26.682Z,2.57
2017-11-20T15:40:52.830Z,2.63
2017-11-20T15:43:19.438Z,2.50
2017-11-20T15:45:45.552Z,13.50
2017-11-20T15:48:12.644Z,2.80
2017-11-20T15:50:39.545Z,8.60
2017-11-20T15:53:05.689Z,4.20
2017-11-20T15:55:31.821Z,8.23
2017-11-20T15:57:57.932Z,4.50
2017-11-20T16:00:25.041Z,6.10
2017-11-20T16:02:51.178Z,5.40
2017-11-20T16:05:17.274Z,3.90
2017-11-20T16:07:44.737Z,4.73
2017-11-20T16:10:11.010Z,5.43
2017-11-20T16:12:37.145Z,4.37
2017-11-20T16:15:03.420Z,7.30
2017-11-20T16:17:29.537Z,5.03
2017-11-20T16:19:55.676Z,6.10
2017-11-20T16:22:21.825Z,5.27
2017-11-20T16:24:47.985Z,5.50
2017-11-20T16:27:14.090Z,4.60
2017-11-20T16:29:40.339Z,5.53
2017-11-20T16:32:06.472Z,5.87
2017-11-20T16:34:32.822Z,6.00
2017-11-20T16:36:59.258Z,6.80
2017-11-20T16:39:25.401Z,5.07
2017-11-20T16:41:51.525Z,4.37
2017-11-20T16:44:17.662Z,5.27
2017-11-20T16:46:43.830Z,4.40
2017-11-20T16:49:10.284Z,5.10
2017-11-20T16:51:36.514Z,6.10
2017-11-20T16:54:02.692Z,5.80
2017-11-20T16:56:28.865Z,4.50
2017-11-20T16:59:01.186Z,5.33
2017-11-20T17:01:47.813Z,5.27
2017-11-20T17:04:14.218Z,6.30
2017-11-20T17:06:40.319Z,7.07
2017-11-20T17:09:06.517Z,7.50
2017-11-20T17:11:32.734Z,8.83
2017-11-20T17:13:58.893Z,9.63
2017-11-20T17:16:25.016Z,11.23
2017-11-20T17:18:51.213Z,11.03
2017-11-20T17:21:18.181Z,12.87
2017-11-20T17:23:45.204Z,12.67
2017-11-20T17:26:12.448Z,13.17
2017-11-20T17:28:38.629Z,13.60
2017-11-20T17:31:04.757Z,14.17
2017-11-20T17:33:31.654Z,13.90
2017-11-20T17:35:57.821Z,14.80
2017-11-20T17:38:24.031Z,16.73
2017-11-20T17:40:51.027Z,15.33
2017-11-20T17:43:17.303Z,18.63
2017-11-20T17:45:44.326Z,17.50
2017-11-20T17:48:10.465Z,18.57
2017-11-20T17:50:36.577Z,20.50
2017-11-20T17:53:02.722Z,24.50
2017-11-20T17:55:28.857Z,24.33
2017-11-20T17:57:58.516Z,23.23
2017-11-20T18:00:24.713Z,21.40
2017-11-20T18:02:51.791Z,25.97
2017-11-20T18:05:18.700Z,24.50
2017-11-20T18:07:45.678Z,23.50
2017-11-20T18:10:11.817Z,23.33
2017-11-20T18:12:37.946Z,24.13
2017-11-20T18:15:25.799Z,24.83
2017-11-20T18:17:52.057Z,23.07
2017-11-20T18:20:18.567Z,23.90
2017-11-20T18:22:52.525Z,24.83
2017-11-20T18:25:19.523Z,27.03
2017-11-20T18:27:45.641Z,22.57
2017-11-20T18:30:11.807Z,25.30
2017-11-20T18:32:38.083Z,24.70
2017-11-20T18:35:04.242Z,28.63
2017-11-20T18:37:30.372Z,27.30
2017-11-20T18:39:56.563Z,26.67
2017-11-20T18:42:23.124Z,26.80
2017-11-20T18:44:49.253Z,25.33
2017-11-20T18:47:16.129Z,26.17
2017-11-20T18:49:43.038Z,25.67
2017-11-20T18:52:09.952Z,25.80
2017-11-20T18:54:36.078Z,23.70
2017-11-20T18:57:02.946Z,24.60
2017-11-20T18:59:29.158Z,24.97
2017-11-20T19:02:08.303Z,23.40
2017-11-20T19:04:46.747Z,25.57
2017-11-20T19:07:25.954Z,23.07
2017-11-20T19:09:52.095Z,27.40
2017-11-20T19:12:19.467Z,23.10
2017-11-20T19:14:47.065Z,27.17
2017-11-20T19:17:14.045Z,21.07
2017-11-20T19:19:42.117Z,22.63
2017-11-20T19:22:08.321Z,22.97
2017-11-20T19:24:34.480Z,23.90
2017-11-20T19:27:00.649Z,22.93
2017-11-20T19:29:26.849Z,22.30
2017-11-20T19:31:52.998Z,24.60
2017-11-20T19:34:19.302Z,25.03
2017-11-20T19:36:45.938Z,23.70
2017-11-20T19:39:12.087Z,24.23
2017-11-20T19:41:38.662Z,24.27
2017-11-20T19:44:04.790Z,25.23
2017-11-20T19:46:31.907Z,27.10
2017-11-20T19:48:58.153Z,26.37
2017-11-20T19:51:24.597Z,28.00
2017-11-20T19:53:50.937Z,21.70
2017-11-20T19:56:17.061Z,23.33
2017-11-20T19:58:43.213Z,23.53
2017-11-20T20:01:09.420Z,21.03
2017-11-20T20:03:36.262Z,22.23
2017-11-20T20:06:02.434Z,21.23
2017-11-20T20:08:28.561Z,22.90
2017-11-20T20:10:54.719Z,29.90
2017-11-20T20:13:33.133Z,24.07
2017-11-20T20:16:12.452Z,20.47
2017-11-20T20:18:38.594Z,21.20
2017-11-20T20:21:04.785Z,18.63
2017-11-20T20:23:30.866Z,19.77
2017-11-20T20:25:57.088Z,22.77
2017-11-20T20:28:23.211Z,19.67
2017-11-20T20:30:49.326Z,20.83
2017-11-20T20:33:16.269Z,19.70
2017-11-20T20:35:43.244Z,24.10
2017-11-20T20:38:09.387Z,21.60
2017-11-20T20:40:35.579Z,18.90
2017-11-20T20:43:02.448Z,18.20
2017-11-20T20:45:28.536Z,20.60
2017-11-20T20:47:54.671Z,19.17
2017-11-20T20:50:20.830Z,20.67
2017-11-20T20:52:46.910Z,21.20
2017-11-20T20:55:13.134Z,18.67
2017-11-20T20:57:39.270Z,17.40
2017-11-20T21:00:06.139Z,20.23
2017-11-20T21:02:32.377Z,16.30
2017-11-20T21:04:59.377Z,17.10
2017-11-20T21:07:25.481Z,18.00
2017-11-20T21:09:58.582Z,17.37
2017-11-20T21:12:24.698Z,19.03
2017-11-20T21:14:50.811Z,19.73
2017-11-20T21:17:16.933Z,19.53
2017-11-20T21:19:43.120Z,20.17
2017-11-20T21:22:09.400Z,17.87
2017-11-20T21:24:35.551Z,18.30
2017-11-20T21:27:01.689Z,18.57
2017-11-20T21:29:27.794Z,20.80
2017-11-20T21:31:54.680Z,20.50
2017-11-20T21:34:20.781Z,18.57
2017-11-20T21:36:46.866Z,18.27
2017-11-20T21:39:13.139Z,21.40
2017-11-20T21:41:40.286Z,20.53
2017-11-20T21:44:06.386Z,25.60
2017-11-20T21:46:33.248Z,19.27
2017-11-20T21:48:59.546Z,21.60
2017-11-20T21:51:25.711Z,18.23
2017-11-20T21:53:52.614Z,19.83
2017-11-20T21:56:19.131Z,21.20
2017-11-20T21:58:45.272Z,19.20
2017-11-20T22:01:11.413Z,21.00
2017-11-20T22:03:37.516Z,20.07
2017-11-20T22:06:03.598Z,21.33
2017-11-20T22:08:29.798Z,20.60
2017-11-20T22:10:56.869Z,21.57
2017-11-20T22:13:27.053Z,21.17
2017-11-20T22:15:53.274Z,19.67
2017-11-20T22:18:19.403Z,20.30
2017-11-20T22:20:45.505Z,19.67
2017-11-20T22:23:11.729Z,19.50
2017-11-20T22:25:37.819Z,20.20
2017-11-20T22:28:03.962Z,18.30
2017-11-20T22:30:30.154Z,18.37
2017-11-20T22:32:56.274Z,17.50
2017-11-20T22:35:22.544Z,15.70
2017-11-20T22:37:48.683Z,17.60
2017-11-20T22:40:15.692Z,15.50
2017-11-20T22:42:42.162Z,14.57
2017-11-20T22:45:09.634Z,16.70
2017-11-20T22:47:37.092Z,15.60
2017-11-20T22:50:03.226Z,17.90
2017-11-20T22:52:29.353Z,18.30
2017-11-20T22:54:55.453Z,19.60
2017-11-20T22:57:21.582Z,18.80
2017-11-20T22:59:48.450Z,20.47
2017-11-20T23:02:14.562Z,18.10
2017-11-20T23:04:40.695Z,17.83
2017-11-20T23:07:07.013Z,18.13
2017-11-20T23:09:33.137Z,19.57
2017-11-20T23:11:59.217Z,18.53
2017-11-20T23:14:25.540Z,19.53
2017-11-20T23:16:51.674Z,19.03
2017-11-20T23:19:17.757Z,19.43
2017-11-20T23:21:43.886Z,19.90
2017-11-20T23:24:10.859Z,18.93
2017-11-20T23:26:37.193Z,20.33
2017-11-20T23:29:04.084Z,20.77
2017-11-20T23:31:30.162Z,19.43
2017-11-20T23:33:56.297Z,19.07
2017-11-20T23:36:22.704Z,18.40
2017-11-20T23:38:48.919Z,19.60
2017-11-20T23:41:15.092Z,20.57
2017-11-20T23:43:41.617Z,18.67
2017-11-20T23:46:07.882Z,17.67
2017-11-20T23:48:34.608Z,19.83
2017-11-20T23:51:00.754Z,19.50
2017-11-20T23:53:32.933Z,17.10
2017-11-20T23:55:59.107Z,16.40
2017-11-20T23:58:25.216Z,17.13
